createdAt,value
2023-03-29T00:00:49.854Z,6.88
2023-03-29T00:03:17.148Z,5.78
2023-03-29T00:05:44.756Z,3.00
2023-03-29T00:08:14.600Z,2.67
2023-03-29T00:10:42.231Z,3.95
2023-03-29T00:13:08.691Z,4.97
2023-03-29T00:15:35.574Z,6.93
2023-03-29T00:18:02.110Z,5.32
2023-03-29T00:20:28.921Z,4.85
2023-03-29T00:22:55.724Z,3.95
2023-03-29T00:25:22.145Z,3.45
2023-03-29T00:27:48.884Z,7.00
2023-03-29T00:30:15.937Z,3.75
2023-03-29T00:32:42.853Z,6.68
2023-03-29T00:35:09.850Z,6.05
2023-03-29T00:37:36.927Z,5.30
2023-03-29T00:40:08.411Z,5.80
2023-03-29T00:42:34.859Z,4.35
2023-03-29T00:45:10.268Z,7.35
2023-03-29T00:47:51.152Z,4.82
2023-03-29T00:52:48.645Z,5.50
2023-03-29T00:55:17.909Z,3.90
2023-03-29T00:57:46.859Z,8.45
2023-03-29T01:00:20.908Z,7.80
2023-03-29T01:02:56.089Z,5.35
2023-03-29T01:05:37.881Z,4.93
2023-03-29T01:08:06.699Z,5.45
2023-03-29T01:10:36.158Z,7.20
2023-03-29T01:13:13.007Z,6.00
2023-03-29T01:15:42.041Z,4.50
2023-03-29T01:18:09.258Z,7.70
2023-03-29T01:20:38.840Z,5.90
2023-03-29T01:23:26.922Z,7.78
2023-03-29T01:26:03.051Z,7.80
2023-03-29T01:28:31.478Z,4.63
2023-03-29T01:31:08.421Z,10.43
2023-03-29T01:33:38.409Z,6.90
2023-03-29T01:36:17.354Z,6.85
2023-03-29T01:38:48.430Z,7.80
2023-03-29T01:41:14.978Z,5.88
2023-03-29T01:43:41.378Z,8.82
2023-03-29T01:46:11.921Z,9.48
2023-03-29T01:48:44.124Z,10.50
2023-03-29T01:51:30.829Z,6.47
2023-03-29T01:54:00.475Z,4.88
2023-03-29T01:56:28.628Z,8.27
2023-03-29T01:59:03.943Z,9.05
2023-03-29T02:01:31.918Z,6.30
2023-03-29T02:04:02.778Z,11.68
2023-03-29T02:08:58.396Z,9.88
2023-03-29T02:11:26.973Z,9.35
2023-03-29T02:13:53.488Z,9.15
2023-03-29T02:16:20.190Z,6.18
2023-03-29T02:18:48.758Z,12.27
2023-03-29T02:21:40.474Z,7.57
2023-03-29T02:24:09.124Z,9.05
2023-03-29T02:26:36.209Z,6.35
2023-03-29T02:29:02.790Z,6.38
2023-03-29T02:31:32.201Z,10.32
2023-03-29T02:34:04.211Z,7.75
2023-03-29T02:36:30.639Z,6.85
2023-03-29T02:39:01.972Z,9.30
2023-03-29T02:41:28.684Z,8.35
2023-03-29T02:43:56.699Z,9.18
2023-03-29T02:46:23.524Z,10.95
2023-03-29T02:48:51.920Z,11.68
2023-03-29T02:51:20.578Z,7.50
2023-03-29T02:53:57.156Z,10.60
2023-03-29T02:56:23.677Z,6.15
2023-03-29T02:58:50.100Z,11.45
2023-03-29T03:01:17.536Z,10.38
2023-03-29T03:03:45.336Z,10.05
2023-03-29T03:06:12.358Z,9.63
2023-03-29T03:08:38.982Z,7.65
2023-03-29T03:11:05.634Z,7.78
2023-03-29T03:13:32.025Z,12.15
2023-03-29T03:15:58.520Z,10.85
2023-03-29T03:18:24.947Z,7.75
2023-03-29T03:20:55.113Z,9.30
2023-03-29T03:23:24.976Z,9.35
2023-03-29T03:25:53.414Z,9.88
2023-03-29T03:28:20.427Z,7.32
2023-03-29T03:30:46.823Z,8.20
2023-03-29T03:33:13.321Z,10.90
2023-03-29T03:35:39.797Z,7.93
2023-03-29T03:38:06.191Z,8.02
2023-03-29T03:40:35.796Z,12.18
2023-03-29T03:43:02.244Z,10.30
2023-03-29T03:45:28.975Z,9.90
2023-03-29T03:47:55.775Z,10.00
2023-03-29T03:50:23.056Z,11.30
2023-03-29T03:52:49.455Z,8.68
2023-03-29T03:55:16.425Z,14.93
2023-03-29T03:57:44.999Z,9.60
2023-03-29T04:00:22.860Z,11.82
2023-03-29T04:02:49.761Z,14.02
2023-03-29T04:05:17.010Z,10.45
2023-03-29T04:07:43.520Z,11.15
2023-03-29T04:10:11.150Z,8.15
2023-03-29T04:12:38.144Z,11.23
2023-03-29T04:15:05.113Z,8.20
2023-03-29T04:17:31.574Z,12.32
2023-03-29T04:19:58.328Z,7.93
2023-03-29T04:22:25.800Z,12.32
2023-03-29T04:24:52.257Z,12.18
2023-03-29T04:27:21.656Z,13.02
2023-03-29T04:29:48.903Z,13.90
2023-03-29T04:32:15.441Z,14.32
2023-03-29T04:34:41.908Z,13.80
2023-03-29T04:37:10.582Z,13.40
2023-03-29T04:39:37.495Z,13.57
2023-03-29T04:42:05.191Z,12.45
2023-03-29T04:44:35.112Z,15.45
2023-03-29T04:47:01.592Z,14.82
2023-03-29T04:49:28.004Z,12.25
2023-03-29T04:51:54.588Z,14.60
2023-03-29T04:54:21.209Z,10.73
2023-03-29T04:56:47.662Z,11.88
2023-03-29T04:59:14.127Z,11.45
2023-03-29T05:01:40.559Z,15.20
2023-03-29T05:04:07.091Z,11.30
2023-03-29T05:06:33.479Z,15.95
2023-03-29T05:09:01.183Z,9.90
2023-03-29T05:11:27.661Z,12.07
2023-03-29T05:13:57.170Z,10.43
2023-03-29T05:16:24.513Z,9.85
2023-03-29T05:18:51.709Z,14.82
2023-03-29T05:21:18.565Z,13.45
2023-03-29T05:23:44.919Z,14.10
2023-03-29T05:26:14.562Z,13.20
2023-03-29T05:28:43.924Z,17.45
2023-03-29T05:31:10.501Z,13.30
2023-03-29T05:33:36.945Z,14.80
2023-03-29T05:36:08.279Z,14.48
2023-03-29T05:38:35.066Z,12.32
2023-03-29T05:41:01.756Z,12.25
2023-03-29T05:43:28.403Z,12.43
2023-03-29T05:45:55.550Z,14.18
2023-03-29T05:48:22.392Z,14.10
2023-03-29T05:50:49.803Z,12.60
2023-03-29T05:53:16.823Z,13.60
2023-03-29T05:55:43.403Z,15.13
2023-03-29T05:58:10.374Z,16.10
2023-03-29T06:00:39.817Z,15.48
2023-03-29T06:03:17.658Z,16.00
2023-03-29T06:08:16.472Z,16.38
2023-03-29T06:10:43.034Z,14.55
2023-03-29T06:13:09.518Z,15.90
2023-03-29T06:15:35.896Z,21.50
2023-03-29T06:18:02.459Z,15.98
2023-03-29T06:20:29.364Z,20.40
2023-03-29T06:22:55.820Z,21.95
2023-03-29T06:25:22.572Z,20.55
2023-03-29T06:27:48.990Z,22.33
2023-03-29T06:30:16.089Z,19.60
2023-03-29T06:32:43.030Z,20.27
2023-03-29T06:35:09.991Z,21.50
2023-03-29T06:37:36.866Z,23.40
2023-03-29T06:40:07.363Z,23.05
2023-03-29T06:42:33.747Z,25.23
2023-03-29T06:45:00.274Z,22.20
2023-03-29T06:47:30.895Z,21.65
2023-03-29T06:49:57.726Z,22.80
2023-03-29T06:52:24.145Z,23.35
2023-03-29T06:54:50.856Z,26.85
2023-03-29T06:57:17.826Z,20.42
2023-03-29T06:59:47.733Z,22.20
2023-03-29T07:02:14.285Z,24.45
2023-03-29T07:04:41.800Z,23.40
2023-03-29T07:07:19.696Z,25.45
2023-03-29T07:09:54.220Z,24.10
2023-03-29T07:12:23.567Z,23.15
2023-03-29T07:14:50.049Z,24.27
2023-03-29T07:17:16.868Z,23.95
2023-03-29T07:19:43.468Z,25.75
2023-03-29T07:22:09.948Z,25.35
2023-03-29T07:24:36.388Z,27.45
2023-03-29T07:27:04.554Z,24.10
2023-03-29T07:29:31.729Z,24.35
2023-03-29T07:31:58.225Z,22.92
2023-03-29T07:34:24.642Z,23.85
2023-03-29T07:36:51.684Z,22.73
2023-03-29T07:39:18.327Z,22.42
2023-03-29T07:41:44.744Z,23.45
2023-03-29T07:44:11.168Z,21.98
2023-03-29T07:46:37.959Z,22.00
2023-03-29T07:49:04.523Z,23.15
2023-03-29T07:51:31.320Z,24.13
2023-03-29T07:53:57.806Z,19.42
2023-03-29T07:56:24.777Z,18.23
2023-03-29T07:58:51.689Z,18.83
2023-03-29T08:01:20.868Z,21.42
2023-03-29T08:03:48.034Z,18.13
2023-03-29T08:06:16.143Z,16.73
2023-03-29T08:08:42.682Z,16.17
2023-03-29T08:11:10.174Z,16.02
2023-03-29T08:13:37.004Z,16.30
2023-03-29T08:16:03.466Z,16.58
2023-03-29T08:18:34.273Z,15.40
2023-03-29T08:21:01.582Z,16.63
2023-03-29T08:23:28.156Z,17.33
2023-03-29T08:25:54.575Z,19.27
2023-03-29T08:28:21.003Z,14.40
2023-03-29T08:30:48.082Z,14.85
2023-03-29T08:33:14.567Z,19.33
2023-03-29T08:35:41.231Z,13.32
2023-03-29T08:38:10.513Z,13.10
2023-03-29T08:40:37.162Z,14.93
2023-03-29T08:43:14.911Z,16.48
2023-03-29T08:45:56.025Z,14.55
2023-03-29T08:48:26.170Z,11.57
2023-03-29T08:51:01.859Z,14.55
2023-03-29T08:53:34.172Z,14.07
2023-03-29T08:56:02.438Z,12.95
2023-03-29T08:58:32.287Z,15.80
2023-03-29T09:01:00.138Z,14.13
2023-03-29T09:03:29.937Z,15.02
2023-03-29T09:05:59.202Z,11.40
2023-03-29T09:08:25.661Z,12.85
2023-03-29T09:10:52.217Z,13.65
2023-03-29T09:13:30.556Z,12.82
2023-03-29T09:16:06.861Z,10.65
2023-03-29T09:18:37.780Z,9.02
2023-03-29T09:23:30.634Z,13.43
2023-03-29T09:26:12.454Z,14.07
2023-03-29T09:28:45.758Z,12.07
2023-03-29T09:31:14.024Z,10.05
2023-03-29T09:33:43.184Z,9.93
2023-03-29T09:36:16.329Z,10.30
2023-03-29T09:38:46.389Z,9.63
2023-03-29T09:41:31.858Z,8.57
2023-03-29T09:44:00.425Z,11.18
2023-03-29T09:46:30.671Z,9.50
2023-03-29T09:48:57.313Z,10.18
2023-03-29T09:51:27.901Z,11.98
2023-03-29T09:53:57.732Z,11.30
2023-03-29T09:56:24.129Z,8.23
2023-03-29T09:58:53.603Z,9.18
2023-03-29T10:01:20.294Z,9.13
2023-03-29T10:03:53.434Z,10.45
2023-03-29T10:06:21.410Z,10.82
2023-03-29T10:08:52.866Z,10.52
2023-03-29T10:11:23.620Z,12.05
2023-03-29T10:13:51.706Z,13.68
2023-03-29T10:16:22.218Z,13.40
2023-03-29T10:18:50.288Z,11.88
2023-03-29T10:21:17.863Z,15.00
2023-03-29T10:23:44.538Z,13.90
2023-03-29T10:26:16.690Z,10.52
2023-03-29T10:28:43.216Z,12.40
2023-03-29T10:31:17.838Z,13.93
2023-03-29T10:33:44.417Z,13.30
2023-03-29T10:36:12.259Z,14.85
2023-03-29T10:38:41.992Z,11.88
2023-03-29T10:41:12.610Z,14.82
2023-03-29T10:43:42.783Z,16.50
2023-03-29T10:46:19.636Z,14.52
2023-03-29T10:48:47.941Z,12.85
2023-03-29T10:51:15.443Z,15.85
2023-03-29T10:53:42.320Z,18.90
2023-03-29T10:56:14.954Z,16.83
2023-03-29T10:58:53.422Z,16.65
2023-03-29T11:01:27.664Z,16.15
2023-03-29T11:04:12.768Z,19.00
2023-03-29T11:06:45.475Z,16.48
2023-03-29T11:09:20.918Z,16.52
2023-03-29T11:12:12.204Z,16.60
2023-03-29T11:14:56.041Z,15.88
2023-03-29T11:17:50.932Z,13.93
2023-03-29T11:20:17.524Z,16.63
2023-03-29T11:22:47.738Z,19.15
2023-03-29T11:25:32.703Z,11.63
2023-03-29T11:28:05.041Z,11.43
2023-03-29T11:30:40.652Z,9.75
2023-03-29T11:33:10.474Z,7.93
2023-03-29T11:35:39.924Z,3.33
2023-03-29T11:38:32.887Z,3.25
2023-03-29T11:40:59.491Z,3.38
2023-03-29T11:43:28.939Z,1.73
2023-03-29T11:45:57.760Z,2.00
2023-03-29T11:48:28.293Z,1.17
2023-03-29T11:50:57.727Z,1.75
2023-03-29T11:53:36.305Z,0.65
2023-03-29T11:56:08.675Z,0.68
2023-03-29T11:58:39.120Z,0.88
2023-03-29T12:01:07.492Z,0.77
2023-03-29T12:03:49.336Z,0.75
2023-03-29T12:06:25.102Z,0.40
2023-03-29T12:09:03.049Z,0.55
2023-03-29T12:11:35.599Z,0.40
2023-03-29T12:14:06.952Z,1.13
2023-03-29T12:16:42.302Z,0.98
2023-03-29T12:19:17.562Z,1.30
2023-03-29T12:21:45.443Z,1.58
2023-03-29T12:24:13.260Z,1.83
2023-03-29T12:26:58.283Z,1.80
2023-03-29T12:29:27.740Z,1.50
2023-03-29T12:32:06.307Z,1.33
2023-03-29T12:34:36.292Z,1.88
2023-03-29T12:37:20.981Z,3.53
2023-03-29T12:39:48.806Z,1.70
2023-03-29T12:42:20.360Z,4.30
2023-03-29T12:44:49.711Z,2.17
2023-03-29T12:47:19.024Z,2.05
2023-03-29T12:49:46.034Z,2.42
2023-03-29T12:52:23.199Z,1.67
2023-03-29T12:55:16.339Z,2.38
2023-03-29T12:57:44.242Z,1.80
2023-03-29T13:00:12.899Z,2.05
2023-03-29T13:02:39.722Z,1.05
2023-03-29T13:05:26.564Z,1.23
2023-03-29T13:07:53.029Z,1.20
2023-03-29T13:10:30.773Z,3.15
2023-03-29T13:12:58.087Z,2.30
2023-03-29T13:15:25.916Z,1.95
2023-03-29T13:17:52.336Z,1.08
2023-03-29T13:20:39.060Z,1.55
2023-03-29T13:23:21.210Z,2.17
2023-03-29T13:26:07.652Z,1.90
2023-03-29T13:28:40.291Z,1.58
2023-03-29T13:31:25.751Z,1.77
2023-03-29T13:34:10.926Z,3.10
2023-03-29T13:37:10.009Z,3.05
2023-03-29T13:39:36.947Z,2.33
2023-03-29T13:42:08.779Z,1.17
2023-03-29T13:44:44.887Z,3.30
2023-03-29T13:47:13.999Z,1.67
2023-03-29T13:49:42.398Z,1.80
2023-03-29T13:52:19.816Z,1.50
2023-03-29T13:55:06.469Z,1.15
2023-03-29T13:57:36.947Z,2.95
2023-03-29T14:00:16.188Z,3.42
2023-03-29T14:02:49.667Z,2.72
2023-03-29T14:05:21.657Z,3.22
2023-03-29T14:07:50.506Z,1.10
2023-03-29T14:10:39.104Z,1.70
2023-03-29T14:13:05.810Z,1.70
2023-03-29T14:16:08.710Z,2.63
2023-03-29T14:18:39.206Z,2.22
2023-03-29T14:21:08.550Z,2.88
2023-03-29T14:23:36.808Z,2.67
2023-03-29T14:26:14.339Z,4.00
2023-03-29T14:28:45.958Z,1.52
2023-03-29T14:31:23.297Z,1.48
2023-03-29T14:33:53.370Z,1.40
2023-03-29T14:36:20.079Z,1.80
2023-03-29T14:38:49.793Z,1.85
2023-03-29T14:41:17.436Z,3.67
2023-03-29T14:43:44.724Z,2.10
2023-03-29T14:46:11.995Z,1.52
2023-03-29T14:48:38.596Z,1.70
2023-03-29T14:51:05.331Z,1.75
2023-03-29T14:53:34.340Z,1.35
2023-03-29T14:56:02.155Z,1.92
2023-03-29T14:58:31.808Z,2.45
2023-03-29T15:01:03.585Z,3.97
2023-03-29T15:03:30.080Z,3.28
2023-03-29T15:06:01.733Z,1.60
2023-03-29T15:08:38.527Z,2.22
2023-03-29T15:11:24.546Z,1.98
2023-03-29T15:13:52.204Z,2.97
2023-03-29T15:16:22.128Z,2.70
2023-03-29T15:18:51.459Z,1.70
2023-03-29T15:21:22.137Z,1.85
2023-03-29T15:23:58.520Z,1.95
2023-03-29T15:26:26.872Z,1.77
2023-03-29T15:28:55.680Z,2.55
2023-03-29T15:31:28.955Z,2.22
2023-03-29T15:34:07.655Z,2.75
2023-03-29T15:36:45.250Z,3.45
2023-03-29T15:39:15.588Z,2.63
2023-03-29T15:41:42.600Z,1.95
2023-03-29T15:44:09.257Z,1.65
2023-03-29T15:46:36.007Z,2.20
2023-03-29T15:49:02.930Z,1.63
2023-03-29T15:51:29.350Z,2.10
2023-03-29T15:53:55.821Z,1.52
2023-03-29T15:56:22.903Z,2.55
2023-03-29T15:58:49.412Z,2.35
2023-03-29T16:01:26.084Z,4.82
2023-03-29T16:03:52.611Z,1.98
2023-03-29T16:06:22.282Z,1.60
2023-03-29T16:08:48.740Z,1.95
2023-03-29T16:11:15.138Z,1.73
2023-03-29T16:13:41.632Z,2.42
2023-03-29T16:16:10.090Z,2.08
2023-03-29T16:18:39.403Z,2.00
2023-03-29T16:21:06.348Z,1.90
2023-03-29T16:23:32.871Z,2.03
2023-03-29T16:25:59.514Z,2.08
2023-03-29T16:28:26.026Z,3.13
2023-03-29T16:30:52.559Z,2.55
2023-03-29T16:33:19.021Z,2.47
2023-03-29T16:35:45.830Z,2.25
2023-03-29T16:38:14.457Z,3.03
2023-03-29T16:40:41.149Z,2.85
2023-03-29T16:43:07.822Z,2.17
2023-03-29T16:45:34.310Z,4.07
2023-03-29T16:48:00.849Z,4.10
2023-03-29T16:50:27.421Z,2.90
2023-03-29T16:52:54.038Z,3.95
2023-03-29T16:55:20.542Z,2.38
2023-03-29T16:57:47.688Z,3.60
2023-03-29T17:00:15.961Z,3.42
2023-03-29T17:02:45.771Z,2.45
2023-03-29T17:05:12.360Z,1.88
2023-03-29T17:07:43.127Z,3.58
2023-03-29T17:10:12.242Z,3.88
2023-03-29T17:12:39.078Z,2.65
2023-03-29T17:15:07.626Z,2.05
2023-03-29T17:17:34.230Z,2.20
2023-03-29T17:20:00.823Z,2.53
2023-03-29T17:22:27.240Z,1.70
2023-03-29T17:24:53.655Z,2.80
2023-03-29T17:27:23.294Z,1.95
2023-03-29T17:29:49.882Z,2.78
2023-03-29T17:32:16.268Z,1.73
2023-03-29T17:34:42.810Z,1.92
2023-03-29T17:37:09.623Z,1.60
2023-03-29T17:39:37.539Z,2.20
2023-03-29T17:42:04.578Z,3.03
2023-03-29T17:44:34.721Z,2.78
2023-03-29T17:47:01.452Z,1.77
2023-03-29T17:49:28.189Z,3.05
2023-03-29T17:51:54.673Z,2.50
2023-03-29T17:54:21.165Z,1.83
2023-03-29T17:56:47.696Z,3.22
2023-03-29T17:59:14.179Z,2.45
2023-03-29T18:01:40.740Z,2.25
2023-03-29T18:04:07.648Z,1.52
2023-03-29T18:06:34.083Z,1.73
2023-03-29T18:09:01.574Z,2.35
2023-03-29T18:11:28.362Z,1.88
2023-03-29T18:13:57.764Z,3.72
2023-03-29T18:16:24.455Z,1.33
2023-03-29T18:18:51.023Z,2.42
2023-03-29T18:21:17.712Z,2.50
2023-03-29T18:23:45.053Z,3.97
2023-03-29T18:26:12.290Z,4.28
2023-03-29T18:28:38.827Z,3.63
2023-03-29T18:31:06.010Z,4.47
2023-03-29T18:33:35.148Z,5.10
2023-03-29T18:36:09.150Z,4.13
2023-03-29T18:38:40.361Z,3.58
2023-03-29T18:41:08.623Z,3.80
2023-03-29T18:43:35.969Z,7.68
2023-03-29T18:46:02.904Z,4.13
2023-03-29T18:48:29.681Z,4.32
2023-03-29T18:50:56.534Z,8.00
2023-03-29T18:53:22.961Z,4.03
2023-03-29T18:55:49.370Z,3.42
2023-03-29T18:58:16.238Z,6.05
2023-03-29T19:00:43.448Z,3.85
2023-03-29T19:03:10.236Z,3.28
2023-03-29T19:05:37.620Z,2.42
2023-03-29T19:08:05.760Z,4.72
2023-03-29T19:10:36.565Z,4.30
2023-03-29T19:15:29.353Z,5.57
2023-03-29T19:17:55.928Z,3.05
2023-03-29T19:20:25.293Z,4.55
2023-03-29T19:22:52.004Z,4.82
2023-03-29T19:25:19.052Z,4.38
2023-03-29T19:27:46.492Z,4.93
2023-03-29T19:30:13.445Z,4.70
2023-03-29T19:32:39.835Z,4.03
2023-03-29T19:35:06.996Z,4.32
2023-03-29T19:37:33.427Z,4.43
2023-03-29T19:39:59.874Z,3.40
2023-03-29T19:42:26.458Z,6.00
2023-03-29T19:44:52.863Z,4.53
2023-03-29T19:47:19.276Z,4.82
2023-03-29T19:49:46.512Z,6.03
2023-03-29T19:52:13.094Z,5.35
2023-03-29T19:54:39.568Z,4.47
2023-03-29T19:57:07.327Z,4.85
2023-03-29T19:59:34.155Z,3.75
2023-03-29T20:02:02.254Z,4.00
2023-03-29T20:04:28.980Z,4.35
2023-03-29T20:06:57.428Z,4.97
2023-03-29T20:09:23.828Z,5.70
2023-03-29T20:11:50.336Z,4.18
2023-03-29T20:14:16.746Z,5.35
2023-03-29T20:16:44.094Z,4.88
2023-03-29T20:19:10.664Z,5.85
2023-03-29T20:21:39.778Z,4.55
2023-03-29T20:24:06.413Z,4.30
2023-03-29T20:26:32.921Z,4.53
2023-03-29T20:28:59.351Z,4.80
2023-03-29T20:31:26.181Z,4.75
2023-03-29T20:33:52.984Z,6.28
2023-03-29T20:36:23.170Z,9.23
2023-03-29T20:38:50.200Z,5.75
2023-03-29T20:41:16.704Z,5.32
2023-03-29T20:43:49.010Z,9.38
2023-03-29T20:46:18.440Z,5.45
2023-03-29T20:48:54.052Z,5.18
2023-03-29T20:51:21.279Z,4.72
2023-03-29T20:53:48.020Z,6.03
2023-03-29T20:56:14.927Z,5.43
2023-03-29T20:58:42.092Z,3.90
2023-03-29T21:01:09.418Z,6.60
2023-03-29T21:03:36.576Z,5.90
2023-03-29T21:06:03.510Z,6.20
2023-03-29T21:08:30.981Z,4.38
2023-03-29T21:10:57.513Z,5.90
2023-03-29T21:13:23.940Z,4.50
2023-03-29T21:15:51.075Z,4.78
2023-03-29T21:18:17.552Z,4.82
2023-03-29T21:20:44.493Z,5.75
2023-03-29T21:23:11.154Z,4.55
2023-03-29T21:25:38.024Z,5.95
2023-03-29T21:28:04.524Z,4.85
2023-03-29T21:30:32.110Z,4.13
2023-03-29T21:32:58.856Z,5.93
2023-03-29T21:35:25.416Z,4.70
2023-03-29T21:37:52.644Z,4.82
2023-03-29T21:40:19.202Z,5.53
2023-03-29T21:42:45.743Z,4.90
2023-03-29T21:45:12.151Z,4.78
2023-03-29T21:47:38.597Z,5.55
2023-03-29T21:50:05.482Z,4.90
2023-03-29T21:52:31.898Z,5.07
2023-03-29T21:54:58.297Z,6.22
2023-03-29T21:57:24.764Z,3.72
2023-03-29T21:59:51.229Z,5.47
2023-03-29T22:02:17.700Z,4.82
2023-03-29T22:04:44.230Z,4.95
2023-03-29T22:07:10.745Z,4.45
2023-03-29T22:09:37.401Z,6.20
2023-03-29T22:12:04.732Z,4.75
2023-03-29T22:14:37.309Z,4.78
2023-03-29T22:17:07.654Z,6.20
2023-03-29T22:19:38.767Z,3.40
2023-03-29T22:22:07.236Z,3.35
2023-03-29T22:24:33.626Z,3.92
2023-03-29T22:27:00.145Z,4.65
2023-03-29T22:29:26.636Z,4.35
2023-03-29T22:31:53.188Z,5.72
2023-03-29T22:34:19.688Z,3.72
2023-03-29T22:36:46.116Z,4.22
2023-03-29T22:39:13.422Z,5.07
2023-03-29T22:41:39.871Z,5.78
2023-03-29T22:44:06.380Z,6.45
2023-03-29T22:46:33.074Z,5.25
2023-03-29T22:48:59.535Z,4.78
2023-03-29T22:51:26.214Z,5.18
2023-03-29T22:53:52.947Z,4.75
2023-03-29T22:56:19.343Z,5.65
2023-03-29T22:58:46.103Z,4.07
2023-03-29T23:01:12.660Z,4.35
2023-03-29T23:03:39.097Z,5.60
2023-03-29T23:06:06.009Z,4.80
2023-03-29T23:08:33.443Z,5.00
2023-03-29T23:11:00.465Z,4.28
2023-03-29T23:13:29.004Z,3.45
2023-03-29T23:15:57.932Z,4.95
2023-03-29T23:18:25.056Z,4.68
2023-03-29T23:20:52.509Z,4.47
2023-03-29T23:23:19.686Z,4.28
2023-03-29T23:25:47.484Z,3.22
2023-03-29T23:34:57.338Z,3.00
2023-03-29T23:37:23.790Z,3.60
2023-03-29T23:39:50.200Z,3.58
2023-03-29T23:42:17.279Z,2.95
2023-03-29T23:44:43.861Z,2.75
2023-03-29T23:47:10.290Z,2.47
2023-03-29T23:49:37.312Z,2.45
2023-03-29T23:52:03.724Z,3.00
2023-03-29T23:54:30.311Z,3.15
2023-03-29T23:56:56.903Z,3.33
2023-03-29T23:59:26.891Z,1.90
